createdAt,value
2023-01-11T00:03:21.678Z,37.90
2023-01-11T00:07:24.881Z,39.00
2023-01-11T00:11:28.115Z,44.10
2023-01-11T00:15:31.511Z,39.90
2023-01-11T00:19:34.801Z,36.10
2023-01-11T00:23:38.579Z,43.00
2023-01-11T00:27:41.905Z,41.90
2023-01-11T00:31:45.144Z,43.50
2023-01-11T00:35:51.950Z,43.20
2023-01-11T00:39:55.147Z,31.30
2023-01-11T00:44:17.317Z,33.20
2023-01-11T00:48:20.580Z,35.80
2023-01-11T00:52:23.797Z,38.80
2023-01-11T00:56:27.075Z,37.00
2023-01-11T01:00:30.406Z,31.20
2023-01-11T01:04:33.908Z,37.00
2023-01-11T01:08:37.144Z,35.60
2023-01-11T01:12:59.064Z,33.80
2023-01-11T01:17:09.174Z,34.20
2023-01-11T01:21:12.572Z,39.30
2023-01-11T01:25:16.696Z,26.10
2023-01-11T01:29:20.056Z,26.20
2023-01-11T01:33:23.978Z,28.70
2023-01-11T01:37:27.620Z,27.30
2023-01-11T01:41:30.911Z,27.40
2023-01-11T01:45:34.332Z,29.20
2023-01-11T01:49:37.956Z,25.90
2023-01-11T01:53:48.759Z,26.00
2023-01-11T01:57:53.834Z,24.90
2023-01-11T02:01:58.104Z,25.00
2023-01-11T02:06:01.569Z,23.60
2023-01-11T02:10:22.870Z,22.60
2023-01-11T02:14:28.215Z,27.70
2023-01-11T02:18:31.451Z,27.70
2023-01-11T02:22:34.705Z,27.80
2023-01-11T02:27:07.165Z,23.60
2023-01-11T02:31:44.556Z,27.70
2023-01-11T02:35:50.476Z,25.00
2023-01-11T02:40:17.984Z,24.40
2023-01-11T02:44:49.347Z,23.20
2023-01-11T02:49:17.174Z,26.70
2023-01-11T02:53:23.210Z,25.50
2023-01-11T02:57:29.649Z,26.30
2023-01-11T03:01:32.909Z,22.00
2023-01-11T03:05:42.162Z,22.00
2023-01-11T03:10:11.462Z,21.60
2023-01-11T03:14:28.186Z,27.50
2023-01-11T03:18:52.725Z,22.80
2023-01-11T03:23:05.136Z,24.40
2023-01-11T03:27:26.559Z,22.00
2023-01-11T03:31:45.509Z,23.90
2023-01-11T03:36:01.250Z,27.60
2023-01-11T03:40:10.858Z,25.60
2023-01-11T03:44:17.293Z,27.30
2023-01-11T03:48:36.609Z,24.40
2023-01-11T03:57:16.381Z,25.00
2023-01-11T04:01:19.862Z,23.80
2023-01-11T04:05:23.290Z,24.90
2023-01-11T04:09:26.602Z,25.50
2023-01-11T04:13:29.937Z,23.30
2023-01-11T04:17:33.204Z,21.00
2023-01-11T04:21:36.497Z,22.50
2023-01-11T04:25:39.771Z,18.80
2023-01-11T04:29:42.965Z,20.60
2023-01-11T04:33:46.183Z,20.00
2023-01-11T04:37:51.372Z,20.70
2023-01-11T04:42:13.620Z,21.10
2023-01-11T04:46:17.052Z,21.20
2023-01-11T04:50:20.396Z,21.60
2023-01-11T04:54:23.702Z,21.90
2023-01-11T04:58:27.234Z,23.10
2023-01-11T05:02:30.472Z,21.20
2023-01-11T05:06:34.035Z,19.60
2023-01-11T05:10:37.412Z,20.80
2023-01-11T05:14:40.779Z,19.30
2023-01-11T05:18:46.954Z,21.30
2023-01-11T05:22:50.235Z,17.60
2023-01-11T05:26:53.545Z,18.70
2023-01-11T05:30:56.787Z,18.40
2023-01-11T05:35:00.262Z,18.80
2023-01-11T05:39:04.944Z,17.80
2023-01-11T05:43:08.195Z,19.00
2023-01-11T05:47:11.484Z,17.90
2023-01-11T05:51:14.967Z,18.00
2023-01-11T05:55:18.439Z,17.30
2023-01-11T05:59:21.797Z,19.00
2023-01-11T06:03:26.643Z,17.00
2023-01-11T06:07:29.969Z,14.80
2023-01-11T06:11:33.300Z,16.00
2023-01-11T06:15:36.563Z,15.80
2023-01-11T06:19:39.911Z,16.10
2023-01-11T06:23:46.437Z,14.90
2023-01-11T06:27:49.855Z,12.90
2023-01-11T06:31:53.175Z,14.50
2023-01-11T06:35:58.610Z,15.40
2023-01-11T06:40:01.921Z,14.00
2023-01-11T06:44:06.389Z,13.20
2023-01-11T06:48:09.758Z,13.80
2023-01-11T06:52:13.081Z,14.40
2023-01-11T06:56:21.120Z,14.00
2023-01-11T07:00:25.064Z,12.80
2023-01-11T07:04:28.503Z,12.50
2023-01-11T07:08:31.859Z,13.50
2023-01-11T07:12:36.713Z,14.00
2023-01-11T07:16:40.100Z,12.70
2023-01-11T07:20:43.589Z,12.30
2023-01-11T07:24:48.529Z,12.20
2023-01-11T07:28:52.019Z,11.30
2023-01-11T07:32:57.389Z,12.00
2023-01-11T07:37:01.177Z,11.00
2023-01-11T07:41:24.466Z,12.70
2023-01-11T07:45:37.309Z,11.90
2023-01-11T07:49:47.752Z,10.00
2023-01-11T07:53:51.345Z,9.90
2023-01-11T07:57:57.542Z,11.90
2023-01-11T08:02:00.780Z,10.70
2023-01-11T08:06:04.320Z,10.50
2023-01-11T08:10:08.888Z,11.40
2023-01-11T08:14:31.040Z,9.90
2023-01-11T08:18:34.390Z,10.70
2023-01-11T08:22:37.619Z,12.70
2023-01-11T08:26:40.839Z,11.10
2023-01-11T08:30:44.667Z,11.60
2023-01-11T08:34:48.199Z,11.50
2023-01-11T08:38:55.550Z,11.10
2023-01-11T08:42:59.337Z,13.30
2023-01-11T08:47:03.530Z,12.40
2023-01-11T08:51:06.787Z,12.60
2023-01-11T08:55:10.959Z,12.90
2023-01-11T08:59:14.536Z,12.90
2023-01-11T09:03:19.045Z,13.00
2023-01-11T09:07:22.333Z,12.90
2023-01-11T09:11:44.342Z,13.40
2023-01-11T09:15:48.218Z,13.30
2023-01-11T09:19:53.646Z,13.60
2023-01-11T09:23:56.940Z,13.00
2023-01-11T09:28:00.335Z,13.10
2023-01-11T09:32:03.653Z,13.20
2023-01-11T09:36:07.388Z,16.20
2023-01-11T09:40:20.964Z,17.20
2023-01-11T09:44:27.005Z,17.10
2023-01-11T09:48:57.246Z,20.30
2023-01-11T09:53:08.140Z,16.80
2023-01-11T09:57:49.435Z,20.00
2023-01-11T10:02:01.633Z,19.00
2023-01-11T10:06:12.059Z,20.00
2023-01-11T10:18:25.907Z,22.20
2023-01-11T10:20:11.601Z,21.30
2023-01-11T10:24:29.269Z,22.50
2023-01-11T10:28:49.588Z,22.50
2023-01-11T10:32:58.375Z,23.30
2023-01-11T10:37:22.798Z,20.00
2023-01-11T10:41:37.841Z,19.00
2023-01-11T10:45:52.056Z,22.70
2023-01-11T10:50:06.414Z,20.70
2023-01-11T10:54:18.142Z,22.30
2023-01-11T10:58:46.695Z,18.10
2023-01-11T11:02:59.470Z,19.00
2023-01-11T11:07:32.913Z,19.00
2023-01-11T11:11:53.339Z,20.00
2023-01-11T11:16:05.242Z,20.70
2023-01-11T11:20:18.544Z,19.50
2023-01-11T11:24:33.403Z,17.40
2023-01-11T11:28:37.220Z,20.00
2023-01-11T11:32:46.933Z,19.40
2023-01-11T11:36:52.418Z,17.70
2023-01-11T11:41:04.383Z,15.50
2023-01-11T11:45:10.608Z,15.60
2023-01-11T11:49:17.334Z,16.30
2023-01-11T11:53:28.363Z,16.70
2023-01-11T11:57:40.649Z,17.70
2023-01-11T12:01:47.880Z,17.90
2023-01-11T12:05:54.718Z,17.10
2023-01-11T12:10:02.766Z,16.20
2023-01-11T12:14:25.746Z,12.10
2023-01-11T12:18:47.440Z,16.70
2023-01-11T12:23:08.822Z,17.00
2023-01-11T12:27:49.340Z,16.40
2023-01-11T12:32:08.077Z,17.80
2023-01-11T12:36:32.483Z,15.30
2023-01-11T12:41:14.485Z,17.60
2023-01-11T12:45:39.688Z,16.70
2023-01-11T12:50:22.688Z,14.40
2023-01-11T12:54:40.605Z,12.90
2023-01-11T12:59:15.921Z,14.80
2023-01-11T13:03:43.937Z,15.10
2023-01-11T13:07:53.099Z,16.00
2023-01-11T13:12:24.553Z,12.40
2023-01-11T13:16:39.020Z,14.60
2023-01-11T13:21:07.139Z,16.60
2023-01-11T13:25:21.566Z,15.50
2023-01-11T13:29:27.134Z,13.50
2023-01-11T13:33:33.042Z,15.90
2023-01-11T13:37:53.577Z,15.80
2023-01-11T13:42:04.809Z,12.30
2023-01-11T13:46:53.020Z,12.90
2023-01-11T13:51:13.770Z,14.10
2023-01-11T13:55:26.919Z,13.40
2023-01-11T13:59:46.259Z,14.80
2023-01-11T14:04:01.479Z,15.80
2023-01-11T14:08:22.784Z,15.30
2023-01-11T14:12:28.861Z,15.20
2023-01-11T14:16:55.335Z,13.90
2023-01-11T14:21:04.792Z,14.70
2023-01-11T14:25:19.839Z,12.60
2023-01-11T14:29:47.157Z,14.60
2023-01-11T14:33:59.215Z,13.90
2023-01-11T14:38:14.532Z,13.60
2023-01-11T14:42:32.108Z,13.70
2023-01-11T14:47:21.471Z,12.60
2023-01-11T14:51:39.535Z,16.00
2023-01-11T14:55:48.030Z,14.20
2023-01-11T14:59:51.265Z,15.50
2023-01-11T15:03:56.554Z,15.20
2023-01-11T15:08:15.143Z,14.40
2023-01-11T15:12:21.082Z,12.70
2023-01-11T15:16:46.685Z,13.80
2023-01-11T15:21:05.350Z,14.40
2023-01-11T15:25:26.738Z,13.40
2023-01-11T15:29:38.686Z,13.30
2023-01-11T15:33:51.096Z,13.10
2023-01-11T15:38:09.111Z,13.60
2023-01-11T15:42:15.484Z,14.60
2023-01-11T15:46:53.355Z,14.40
2023-01-11T15:51:24.604Z,15.60
2023-01-11T15:55:54.256Z,15.90
2023-01-11T16:00:19.098Z,16.50
2023-01-11T16:04:33.287Z,17.80
2023-01-11T16:08:56.294Z,17.30
2023-01-11T16:13:39.306Z,17.60
2023-01-11T16:17:46.271Z,20.20
2023-01-11T16:21:52.737Z,18.80
2023-01-11T16:25:59.339Z,18.30
2023-01-11T16:30:02.917Z,19.70
2023-01-11T16:34:09.056Z,20.20
2023-01-11T16:38:19.516Z,17.40
2023-01-11T16:42:23.243Z,18.90
2023-01-11T16:47:01.066Z,20.90
2023-01-11T16:51:16.613Z,22.20
2023-01-11T16:55:34.105Z,25.40
2023-01-11T16:59:37.410Z,21.20
2023-01-11T17:03:54.292Z,21.90
2023-01-11T17:07:57.575Z,19.30
2023-01-11T17:12:00.838Z,21.80
2023-01-11T17:16:11.261Z,19.80
2023-01-11T17:20:20.803Z,23.80
2023-01-11T17:24:26.271Z,20.00
2023-01-11T17:28:29.799Z,20.20
2023-01-11T17:32:37.315Z,15.60
2023-01-11T17:36:41.578Z,16.70
2023-01-11T17:40:45.292Z,19.50
2023-01-11T17:45:09.900Z,17.00
2023-01-11T17:49:23.552Z,20.40
2023-01-11T17:53:32.490Z,18.10
2023-01-11T17:57:35.847Z,20.50
2023-01-11T18:01:39.388Z,17.40
2023-01-11T18:05:43.341Z,17.00
2023-01-11T18:09:57.599Z,16.90
2023-01-11T18:14:04.673Z,17.50
2023-01-11T18:18:41.564Z,17.20
2023-01-11T18:22:53.654Z,15.30
2023-01-11T18:27:26.449Z,18.10
2023-01-11T18:31:29.769Z,16.50
2023-01-11T18:35:44.266Z,16.80
2023-01-11T18:39:47.633Z,16.30
2023-01-11T18:43:52.072Z,16.30
2023-01-11T18:47:55.332Z,17.80
2023-01-11T18:51:58.582Z,19.20
2023-01-11T18:56:01.858Z,18.50
2023-01-11T19:00:05.621Z,19.50
2023-01-11T19:04:10.497Z,19.10
2023-01-11T19:08:13.770Z,15.90
2023-01-11T19:12:17.671Z,19.40
2023-01-11T19:16:20.963Z,18.00
2023-01-11T19:20:24.157Z,19.60
2023-01-11T19:24:27.395Z,18.90
2023-01-11T19:28:30.750Z,17.70
2023-01-11T19:32:34.045Z,15.30
2023-01-11T19:36:37.259Z,16.10
2023-01-11T19:40:40.467Z,16.70
2023-01-11T19:44:43.979Z,15.30
2023-01-11T19:48:47.207Z,15.00
2023-01-11T19:52:50.474Z,14.10
2023-01-11T19:56:53.737Z,13.80
2023-01-11T20:00:57.095Z,14.40
2023-01-11T20:05:00.302Z,14.50
2023-01-11T20:09:03.726Z,13.30
2023-01-11T20:13:06.982Z,12.90
2023-01-11T20:17:10.485Z,13.00
2023-01-11T20:21:14.050Z,12.10
2023-01-11T20:25:17.980Z,12.20
2023-01-11T20:29:21.239Z,11.20
2023-01-11T20:33:25.491Z,11.30
2023-01-11T20:37:29.366Z,10.90
2023-01-11T20:41:48.710Z,11.90
2023-01-11T20:45:56.770Z,12.50
2023-01-11T20:50:00.052Z,11.30
2023-01-11T20:54:04.906Z,11.60
2023-01-11T20:58:08.233Z,11.80
2023-01-11T21:02:13.731Z,11.70
2023-01-11T21:06:16.992Z,11.90
2023-01-11T21:10:20.436Z,11.10
2023-01-11T21:14:23.919Z,11.20
2023-01-11T21:18:27.218Z,11.90
2023-01-11T21:22:30.430Z,11.10
2023-01-11T21:26:34.977Z,12.60
2023-01-11T21:30:38.210Z,12.00
2023-01-11T21:34:41.515Z,10.70
2023-01-11T21:38:44.796Z,11.50
2023-01-11T21:42:48.086Z,12.50
2023-01-11T21:46:51.395Z,11.20
2023-01-11T21:50:54.741Z,10.80
2023-01-11T21:54:57.999Z,12.20
2023-01-11T21:59:01.564Z,11.10
2023-01-11T22:03:04.927Z,11.10
2023-01-11T22:07:08.219Z,11.10
2023-01-11T22:11:13.574Z,11.60
2023-01-11T22:15:16.913Z,11.70
2023-01-11T22:19:20.478Z,12.20
2023-01-11T22:23:24.098Z,13.10
2023-01-11T22:27:27.463Z,13.70
2023-01-11T22:31:32.475Z,12.20
2023-01-11T22:35:35.737Z,12.10
2023-01-11T22:39:40.756Z,12.10
2023-01-11T22:43:44.314Z,12.30
2023-01-11T22:47:50.185Z,13.80
2023-01-11T22:51:53.388Z,14.00
2023-01-11T22:56:01.722Z,14.00
2023-01-11T23:00:06.567Z,12.80
2023-01-11T23:04:13.522Z,13.10
2023-01-11T23:08:16.761Z,12.30
2023-01-11T23:12:38.677Z,13.60
2023-01-11T23:16:42.696Z,15.00
2023-01-11T23:20:46.815Z,12.40
2023-01-11T23:24:50.046Z,12.30
2023-01-11T23:28:53.290Z,13.70
2023-01-11T23:32:56.504Z,13.50
2023-01-11T23:36:59.692Z,12.50
2023-01-11T23:41:26.994Z,14.50
2023-01-11T23:45:30.230Z,13.80
2023-01-11T23:49:33.933Z,13.80
2023-01-11T23:53:37.255Z,12.40
2023-01-11T23:58:00.497Z,14.30
